sensor_id;sensor_type;location;lat;lon;timestamp;temperature;humidity
26035;DHT22;13809;48.632;11.576;2022-08-19T00:04:45;23.30;44.30
26035;DHT22;13809;48.632;11.576;2022-08-19T00:09:50;23.20;43.50
26035;DHT22;13809;48.632;11.576;2022-08-19T00:14:55;23.20;43.50
26035;DHT22;13809;48.632;11.576;2022-08-19T00:19:58;23.20;44.40
26035;DHT22;13809;48.632;11.576;2022-08-19T00:25:01;23.30;43.80
26035;DHT22;13809;48.632;11.576;2022-08-19T00:30:07;23.30;43.80
26035;DHT22;13809;48.632;11.576;2022-08-19T00:35:12;23.30;44.90
26035;DHT22;13809;48.632;11.576;2022-08-19T00:40:16;23.30;43.90
26035;DHT22;13809;48.632;11.576;2022-08-19T00:45:26;23.20;44.30
26035;DHT22;13809;48.632;11.576;2022-08-19T00:50:30;23.20;45.50
26035;DHT22;13809;48.632;11.576;2022-08-19T00:55:33;23.30;44.20
26035;DHT22;13809;48.632;11.576;2022-08-19T01:00:38;23.30;44.20
26035;DHT22;13809;48.632;11.576;2022-08-19T01:05:43;23.40;45.00
26035;DHT22;13809;48.632;11.576;2022-08-19T01:10:50;23.30;44.60
26035;DHT22;13809;48.632;11.576;2022-08-19T01:15:58;23.40;45.30
26035;DHT22;13809;48.632;11.576;2022-08-19T01:21:08;23.40;45.30
26035;DHT22;13809;48.632;11.576;2022-08-19T01:26:15;23.40;45.20
26035;DHT22;13809;48.632;11.576;2022-08-19T01:31:22;23.50;45.10
26035;DHT22;13809;48.632;11.576;2022-08-19T01:36:31;23.40;45.20
26035;DHT22;13809;48.632;11.576;2022-08-19T01:41:36;23.30;45.30
26035;DHT22;13809;48.632;11.576;2022-08-19T01:46:39;23.20;45.50
26035;DHT22;13809;48.632;11.576;2022-08-19T01:51:42;23.20;44.90
26035;DHT22;13809;48.632;11.576;2022-08-19T01:56:47;23.20;44.90
26035;DHT22;13809;48.632;11.576;2022-08-19T02:01:51;23.20;45.60
26035;DHT22;13809;48.632;11.576;2022-08-19T02:06:55;23.20;45.00
26035;DHT22;13809;48.632;11.576;2022-08-19T02:11:59;23.10;45.20
26035;DHT22;13809;48.632;11.576;2022-08-19T02:17:03;23.10;46.20
26035;DHT22;13809;48.632;11.576;2022-08-19T02:22:07;23.10;45.40
26035;DHT22;13809;48.632;11.576;2022-08-19T02:27:11;23.10;45.60
26035;DHT22;13809;48.632;11.576;2022-08-19T02:32:15;23.10;46.20
26035;DHT22;13809;48.632;11.576;2022-08-19T02:37:18;23.10;45.80
26035;DHT22;13809;48.632;11.576;2022-08-19T02:42:40;23.20;45.60
26035;DHT22;13809;48.632;11.576;2022-08-19T02:47:44;23.20;46.30
26035;DHT22;13809;48.632;11.576;2022-08-19T02:52:48;23.20;45.60
26035;DHT22;13809;48.632;11.576;2022-08-19T02:57:52;23.10;45.50
26035;DHT22;13809;48.632;11.576;2022-08-19T03:02:55;23.10;46.30
26035;DHT22;13809;48.632;11.576;2022-08-19T03:07:59;23.10;45.80
26035;DHT22;13809;48.632;11.576;2022-08-19T03:13:03;23.00;46.00
26035;DHT22;13809;48.632;11.576;2022-08-19T03:18:06;22.90;46.70
26035;DHT22;13809;48.632;11.576;2022-08-19T03:23:11;22.90;46.40
26035;DHT22;13809;48.632;11.576;2022-08-19T03:28:17;22.90;46.60
26035;DHT22;13809;48.632;11.576;2022-08-19T03:33:20;23.00;47.20
26035;DHT22;13809;48.632;11.576;2022-08-19T03:38:29;23.00;46.40
26035;DHT22;13809;48.632;11.576;2022-08-19T03:43:37;23.00;46.40
26035;DHT22;13809;48.632;11.576;2022-08-19T03:48:42;23.00;47.30
26035;DHT22;13809;48.632;11.576;2022-08-19T03:53:46;23.00;46.80
26035;DHT22;13809;48.632;11.576;2022-08-19T03:58:51;23.00;46.50
26035;DHT22;13809;48.632;11.576;2022-08-19T04:03:56;23.00;47.10
26035;DHT22;13809;48.632;11.576;2022-08-19T04:09:03;23.00;46.80
26035;DHT22;13809;48.632;11.576;2022-08-19T04:14:09;23.00;47.40
26035;DHT22;13809;48.632;11.576;2022-08-19T04:19:13;22.90;47.50
26035;DHT22;13809;48.632;11.576;2022-08-19T04:24:18;22.90;47.20
26035;DHT22;13809;48.632;11.576;2022-08-19T04:29:24;22.90;47.10
26035;DHT22;13809;48.632;11.576;2022-08-19T04:34:29;22.90;47.80
26035;DHT22;13809;48.632;11.576;2022-08-19T04:39:32;23.00;47.40
26035;DHT22;13809;48.632;11.576;2022-08-19T04:45:00;22.90;47.10
26035;DHT22;13809;48.632;11.576;2022-08-19T04:50:10;23.00;47.50
26035;DHT22;13809;48.632;11.576;2022-08-19T04:55:13;23.10;47.30
26035;DHT22;13809;48.632;11.576;2022-08-19T05:00:18;23.10;47.00
26035;DHT22;13809;48.632;11.576;2022-08-19T05:05:21;23.10;47.60
26035;DHT22;13809;48.632;11.576;2022-08-19T05:10:24;23.10;47.10
26035;DHT22;13809;48.632;11.576;2022-08-19T05:15:30;23.10;47.20
26035;DHT22;13809;48.632;11.576;2022-08-19T05:20:33;23.10;48.00
26035;DHT22;13809;48.632;11.576;2022-08-19T05:25:54;23.10;47.40
26035;DHT22;13809;48.632;11.576;2022-08-19T05:30:58;23.10;47.20
26035;DHT22;13809;48.632;11.576;2022-08-19T05:36:02;23.20;47.90
26035;DHT22;13809;48.632;11.576;2022-08-19T05:41:08;23.20;47.30
26035;DHT22;13809;48.632;11.576;2022-08-19T05:46:17;23.20;47.40
26035;DHT22;13809;48.632;11.576;2022-08-19T05:51:31;23.20;48.40
26035;DHT22;13809;48.632;11.576;2022-08-19T05:56:35;23.20;47.90
26035;DHT22;13809;48.632;11.576;2022-08-19T06:01:43;23.30;47.30
26035;DHT22;13809;48.632;11.576;2022-08-19T06:06:47;23.30;48.00
26035;DHT22;13809;48.632;11.576;2022-08-19T06:11:53;23.40;47.60
26035;DHT22;13809;48.632;11.576;2022-08-19T06:16:58;23.30;47.80
26035;DHT22;13809;48.632;11.576;2022-08-19T06:22:08;23.40;48.00
26035;DHT22;13809;48.632;11.576;2022-08-19T06:27:13;23.40;47.80
26035;DHT22;13809;48.632;11.576;2022-08-19T06:32:19;23.40;47.60
26035;DHT22;13809;48.632;11.576;2022-08-19T06:37:22;23.40;48.10
26035;DHT22;13809;48.632;11.576;2022-08-19T06:42:25;23.50;47.70
26035;DHT22;13809;48.632;11.576;2022-08-19T06:47:30;23.50;47.80
26035;DHT22;13809;48.632;11.576;2022-08-19T06:52:35;23.50;48.10
26035;DHT22;13809;48.632;11.576;2022-08-19T06:57:39;23.50;47.60
26035;DHT22;13809;48.632;11.576;2022-08-19T07:02:45;23.60;47.80
26035;DHT22;13809;48.632;11.576;2022-08-19T07:07:58;23.60;48.20
26035;DHT22;13809;48.632;11.576;2022-08-19T07:13:05;23.60;47.70
26035;DHT22;13809;48.632;11.576;2022-08-19T07:18:11;23.70;47.70
26035;DHT22;13809;48.632;11.576;2022-08-19T07:23:14;23.70;47.70
26035;DHT22;13809;48.632;11.576;2022-08-19T07:28:17;23.80;47.50
26035;DHT22;13809;48.632;11.576;2022-08-19T07:33:27;23.70;47.50
26035;DHT22;13809;48.632;11.576;2022-08-19T07:38:34;23.70;47.90
26035;DHT22;13809;48.632;11.576;2022-08-19T07:43:38;23.70;47.80
26035;DHT22;13809;48.632;11.576;2022-08-19T07:48:44;23.70;47.70
26035;DHT22;13809;48.632;11.576;2022-08-19T07:53:49;23.80;48.60
26035;DHT22;13809;48.632;11.576;2022-08-19T07:58:52;23.80;48.00
26035;DHT22;13809;48.632;11.576;2022-08-19T08:04:02;23.80;47.90
26035;DHT22;13809;48.632;11.576;2022-08-19T08:09:31;23.80;48.40
26035;DHT22;13809;48.632;11.576;2022-08-19T08:14:49;23.90;49.10
26035;DHT22;13809;48.632;11.576;2022-08-19T08:19:58;23.90;48.90
26035;DHT22;13809;48.632;11.576;2022-08-19T08:25:04;23.90;48.60
26035;DHT22;13809;48.632;11.576;2022-08-19T08:30:08;24.00;49.50
26035;DHT22;13809;48.632;11.576;2022-08-19T08:35:18;23.90;48.40
26035;DHT22;13809;48.632;11.576;2022-08-19T08:40:28;23.90;49.00
26035;DHT22;13809;48.632;11.576;2022-08-19T08:45:41;23.90;49.20
26035;DHT22;13809;48.632;11.576;2022-08-19T08:50:56;24.00;49.60
26035;DHT22;13809;48.632;11.576;2022-08-19T08:56:04;24.00;49.30
26035;DHT22;13809;48.632;11.576;2022-08-19T09:01:09;24.00;49.30
26035;DHT22;13809;48.632;11.576;2022-08-19T09:06:21;24.00;48.70
26035;DHT22;13809;48.632;11.576;2022-08-19T09:11:44;23.90;49.80
26035;DHT22;13809;48.632;11.576;2022-08-19T09:17:03;24.00;49.90
26035;DHT22;13809;48.632;11.576;2022-08-19T09:22:22;24.00;48.70
26035;DHT22;13809;48.632;11.576;2022-08-19T09:27:28;24.00;49.60
26035;DHT22;13809;48.632;11.576;2022-08-19T09:32:43;24.00;48.90
26035;DHT22;13809;48.632;11.576;2022-08-19T09:37:48;24.10;48.90
26035;DHT22;13809;48.632;11.576;2022-08-19T09:42:58;24.10;49.30
26035;DHT22;13809;48.632;11.576;2022-08-19T09:48:14;24.10;48.80
26035;DHT22;13809;48.632;11.576;2022-08-19T09:53:21;24.20;49.20
26035;DHT22;13809;48.632;11.576;2022-08-19T09:58:26;24.20;49.30
26035;DHT22;13809;48.632;11.576;2022-08-19T10:03:33;24.30;49.10
26035;DHT22;13809;48.632;11.576;2022-08-19T10:08:38;24.30;49.50
26035;DHT22;13809;48.632;11.576;2022-08-19T10:13:51;24.40;49.40
26035;DHT22;13809;48.632;11.576;2022-08-19T10:18:55;24.50;48.60
26035;DHT22;13809;48.632;11.576;2022-08-19T10:24:03;24.60;48.70
26035;DHT22;13809;48.632;11.576;2022-08-19T10:29:07;24.60;48.70
26035;DHT22;13809;48.632;11.576;2022-08-19T10:34:13;24.60;48.40
26035;DHT22;13809;48.632;11.576;2022-08-19T10:39:30;24.60;48.40
26035;DHT22;13809;48.632;11.576;2022-08-19T10:44:45;24.60;48.60
26035;DHT22;13809;48.632;11.576;2022-08-19T10:49:53;24.60;48.70
26035;DHT22;13809;48.632;11.576;2022-08-19T10:55:14;24.50;48.40
26035;DHT22;13809;48.632;11.576;2022-08-19T11:00:35;24.60;48.70
26035;DHT22;13809;48.632;11.576;2022-08-19T11:05:46;24.60;48.50
26035;DHT22;13809;48.632;11.576;2022-08-19T11:10:53;24.60;49.10
26035;DHT22;13809;48.632;11.576;2022-08-19T11:16:04;24.60;49.20
26035;DHT22;13809;48.632;11.576;2022-08-19T11:21:18;24.60;49.30
26035;DHT22;13809;48.632;11.576;2022-08-19T11:26:25;24.60;49.30
26035;DHT22;13809;48.632;11.576;2022-08-19T11:31:34;24.60;49.10
26035;DHT22;13809;48.632;11.576;2022-08-19T11:36:41;24.50;49.40
26035;DHT22;13809;48.632;11.576;2022-08-19T11:41:46;24.40;49.20
26035;DHT22;13809;48.632;11.576;2022-08-19T11:46:51;24.30;49.20
26035;DHT22;13809;48.632;11.576;2022-08-19T11:51:55;24.20;49.60
26035;DHT22;13809;48.632;11.576;2022-08-19T11:57:04;24.10;49.10
26035;DHT22;13809;48.632;11.576;2022-08-19T12:02:07;24.10;50.10
26035;DHT22;13809;48.632;11.576;2022-08-19T12:07:12;24.00;49.40
26035;DHT22;13809;48.632;11.576;2022-08-19T12:12:17;23.90;50.40
26035;DHT22;13809;48.632;11.576;2022-08-19T12:17:31;23.70;50.50
26035;DHT22;13809;48.632;11.576;2022-08-19T12:22:37;23.80;51.00
26035;DHT22;13809;48.632;11.576;2022-08-19T12:27:42;23.60;50.50
26035;DHT22;13809;48.632;11.576;2022-08-19T12:33:06;23.60;50.70
26035;DHT22;13809;48.632;11.576;2022-08-19T12:38:13;23.50;51.30
26035;DHT22;13809;48.632;11.576;2022-08-19T12:43:45;23.40;51.70
26035;DHT22;13809;48.632;11.576;2022-08-19T12:49:05;23.40;51.70
26035;DHT22;13809;48.632;11.576;2022-08-19T12:54:43;23.40;51.70
26035;DHT22;13809;48.632;11.576;2022-08-19T12:59:52;23.40;51.70
26035;DHT22;13809;48.632;11.576;2022-08-19T13:04:56;23.40;51.80
26035;DHT22;13809;48.632;11.576;2022-08-19T13:10:28;23.40;51.70
26035;DHT22;13809;48.632;11.576;2022-08-19T13:15:51;23.50;52.10
26035;DHT22;13809;48.632;11.576;2022-08-19T13:20:56;23.50;51.80
26035;DHT22;13809;48.632;11.576;2022-08-19T13:26:00;23.70;52.00
26035;DHT22;13809;48.632;11.576;2022-08-19T13:31:06;23.80;52.10
26035;DHT22;13809;48.632;11.576;2022-08-19T13:42:25;23.90;52.20
26035;DHT22;13809;48.632;11.576;2022-08-19T13:47:30;23.90;52.10
26035;DHT22;13809;48.632;11.576;2022-08-19T13:52:33;24.00;50.90
26035;DHT22;13809;48.632;11.576;2022-08-19T13:57:37;24.00;50.60
26035;DHT22;13809;48.632;11.576;2022-08-19T14:02:45;24.00;50.60
26035;DHT22;13809;48.632;11.576;2022-08-19T14:07:48;24.00;51.50
26035;DHT22;13809;48.632;11.576;2022-08-19T14:12:53;23.90;50.40
26035;DHT22;13809;48.632;11.576;2022-08-19T14:17:58;23.90;51.00
26035;DHT22;13809;48.632;11.576;2022-08-19T14:23:02;23.80;51.30
26035;DHT22;13809;48.632;11.576;2022-08-19T14:28:06;23.80;50.90
26035;DHT22;13809;48.632;11.576;2022-08-19T14:33:11;23.80;50.80
26035;DHT22;13809;48.632;11.576;2022-08-19T14:38:17;23.80;51.20
26035;DHT22;13809;48.632;11.576;2022-08-19T14:43:32;23.80;51.40
26035;DHT22;13809;48.632;11.576;2022-08-19T14:48:36;23.80;51.60
26035;DHT22;13809;48.632;11.576;2022-08-19T14:53:42;23.80;52.10
26035;DHT22;13809;48.632;11.576;2022-08-19T14:58:45;23.80;51.30
26035;DHT22;13809;48.632;11.576;2022-08-19T15:03:50;23.80;51.30
26035;DHT22;13809;48.632;11.576;2022-08-19T15:08:55;23.80;51.70
26035;DHT22;13809;48.632;11.576;2022-08-19T15:14:05;23.80;51.60
26035;DHT22;13809;48.632;11.576;2022-08-19T15:19:10;23.90;51.50
26035;DHT22;13809;48.632;11.576;2022-08-19T15:24:13;23.90;51.90
26035;DHT22;13809;48.632;11.576;2022-08-19T15:29:16;23.90;51.10
26035;DHT22;13809;48.632;11.576;2022-08-19T15:34:21;23.90;51.10
26035;DHT22;13809;48.632;11.576;2022-08-19T15:39:24;23.90;52.00
26035;DHT22;13809;48.632;11.576;2022-08-19T15:44:28;23.90;51.20
26035;DHT22;13809;48.632;11.576;2022-08-19T15:49:32;23.80;51.20
26035;DHT22;13809;48.632;11.576;2022-08-19T15:54:35;23.80;51.20
26035;DHT22;13809;48.632;11.576;2022-08-19T15:59:39;23.70;51.00
26035;DHT22;13809;48.632;11.576;2022-08-19T16:05:08;23.60;51.30
26035;DHT22;13809;48.632;11.576;2022-08-19T16:10:29;23.60;51.90
26035;DHT22;13809;48.632;11.576;2022-08-19T16:15:33;23.50;51.80
26035;DHT22;13809;48.632;11.576;2022-08-19T16:20:37;23.50;51.80
26035;DHT22;13809;48.632;11.576;2022-08-19T16:25:40;23.40;51.70
26035;DHT22;13809;48.632;11.576;2022-08-19T16:30:44;23.40;51.70
26035;DHT22;13809;48.632;11.576;2022-08-19T16:35:53;23.30;52.30
26035;DHT22;13809;48.632;11.576;2022-08-19T16:41:07;23.30;51.70
26035;DHT22;13809;48.632;11.576;2022-08-19T16:46:12;23.30;51.60
26035;DHT22;13809;48.632;11.576;2022-08-19T16:51:21;23.30;51.60
26035;DHT22;13809;48.632;11.576;2022-08-19T16:56:24;23.20;51.70
26035;DHT22;13809;48.632;11.576;2022-08-19T17:01:28;23.30;51.60
26035;DHT22;13809;48.632;11.576;2022-08-19T17:06:33;23.30;51.60
26035;DHT22;13809;48.632;11.576;2022-08-19T17:11:38;23.30;51.60
26035;DHT22;13809;48.632;11.576;2022-08-19T17:16:41;23.30;51.60
26035;DHT22;13809;48.632;11.576;2022-08-19T17:21:46;23.20;51.60
26035;DHT22;13809;48.632;11.576;2022-08-19T17:26:49;23.20;51.60
26035;DHT22;13809;48.632;11.576;2022-08-19T17:31:52;23.20;51.60
26035;DHT22;13809;48.632;11.576;2022-08-19T17:36:57;23.10;51.20
26035;DHT22;13809;48.632;11.576;2022-08-19T17:42:00;23.10;50.90
26035;DHT22;13809;48.632;11.576;2022-08-19T17:47:06;23.10;50.70
26035;DHT22;13809;48.632;11.576;2022-08-19T17:52:11;22.90;50.50
26035;DHT22;13809;48.632;11.576;2022-08-19T17:57:14;22.80;50.40
26035;DHT22;13809;48.632;11.576;2022-08-19T18:02:18;22.70;50.40
26035;DHT22;13809;48.632;11.576;2022-08-19T18:07:24;22.60;50.70
26035;DHT22;13809;48.632;11.576;2022-08-19T18:12:27;22.50;51.00
26035;DHT22;13809;48.632;11.576;2022-08-19T18:17:30;22.40;50.80
26035;DHT22;13809;48.632;11.576;2022-08-19T18:22:37;22.30;50.80
26035;DHT22;13809;48.632;11.576;2022-08-19T18:27:40;22.10;50.70
26035;DHT22;13809;48.632;11.576;2022-08-19T18:32:44;21.90;50.50
26035;DHT22;13809;48.632;11.576;2022-08-19T18:37:51;21.80;51.10
26035;DHT22;13809;48.632;11.576;2022-08-19T18:42:55;21.70;51.70
26035;DHT22;13809;48.632;11.576;2022-08-19T18:48:18;21.60;51.60
26035;DHT22;13809;48.632;11.576;2022-08-19T18:53:40;21.60;51.50
26035;DHT22;13809;48.632;11.576;2022-08-19T18:58:45;21.70;52.20
26035;DHT22;13809;48.632;11.576;2022-08-19T19:03:50;21.70;51.70
26035;DHT22;13809;48.632;11.576;2022-08-19T19:08:58;21.60;52.30
26035;DHT22;13809;48.632;11.576;2022-08-19T19:14:02;21.50;52.40
26035;DHT22;13809;48.632;11.576;2022-08-19T19:19:06;21.30;52.40
26035;DHT22;13809;48.632;11.576;2022-08-19T19:24:17;21.20;52.80
26035;DHT22;13809;48.632;11.576;2022-08-19T19:29:22;21.20;53.60
26035;DHT22;13809;48.632;11.576;2022-08-19T19:34:28;21.10;53.10
26035;DHT22;13809;48.632;11.576;2022-08-19T19:39:33;21.10;53.10
26035;DHT22;13809;48.632;11.576;2022-08-19T19:44:50;21.00;53.70
26035;DHT22;13809;48.632;11.576;2022-08-19T19:49:55;21.00;53.70
26035;DHT22;13809;48.632;11.576;2022-08-19T19:55:17;20.90;53.00
26035;DHT22;13809;48.632;11.576;2022-08-19T20:00:20;20.90;53.50
26035;DHT22;13809;48.632;11.576;2022-08-19T20:05:24;20.80;53.20
26035;DHT22;13809;48.632;11.576;2022-08-19T20:10:30;20.80;53.40
26035;DHT22;13809;48.632;11.576;2022-08-19T20:15:33;20.80;53.40
26035;DHT22;13809;48.632;11.576;2022-08-19T20:20:43;20.70;52.90
26035;DHT22;13809;48.632;11.576;2022-08-19T20:25:49;20.70;52.90
26035;DHT22;13809;48.632;11.576;2022-08-19T20:30:53;20.70;53.10
26035;DHT22;13809;48.632;11.576;2022-08-19T20:35:56;20.60;52.80
26035;DHT22;13809;48.632;11.576;2022-08-19T20:41:11;20.60;52.70
26035;DHT22;13809;48.632;11.576;2022-08-19T20:46:18;20.60;53.20
26035;DHT22;13809;48.632;11.576;2022-08-19T20:51:22;20.60;52.90
26035;DHT22;13809;48.632;11.576;2022-08-19T20:56:34;20.50;52.90
26035;DHT22;13809;48.632;11.576;2022-08-19T21:01:45;20.60;53.80
26035;DHT22;13809;48.632;11.576;2022-08-19T21:06:59;20.60;53.20
26035;DHT22;13809;48.632;11.576;2022-08-19T21:12:07;20.50;52.90
26035;DHT22;13809;48.632;11.576;2022-08-19T21:17:14;20.50;53.40
26035;DHT22;13809;48.632;11.576;2022-08-19T21:22:17;20.50;52.70
26035;DHT22;13809;48.632;11.576;2022-08-19T21:27:22;20.60;53.00
26035;DHT22;13809;48.632;11.576;2022-08-19T21:37:55;20.50;53.60
26035;DHT22;13809;48.632;11.576;2022-08-19T21:43:10;20.50;53.70
26035;DHT22;13809;48.632;11.576;2022-08-19T21:48:17;20.50;53.70
26035;DHT22;13809;48.632;11.576;2022-08-19T21:53:21;20.50;53.80
26035;DHT22;13809;48.632;11.576;2022-08-19T21:58:26;20.50;53.70
26035;DHT22;13809;48.632;11.576;2022-08-19T22:03:32;20.50;53.80
26035;DHT22;13809;48.632;11.576;2022-08-19T22:14:03;20.50;53.60
26035;DHT22;13809;48.632;11.576;2022-08-19T22:19:08;20.50;54.70
26035;DHT22;13809;48.632;11.576;2022-08-19T22:24:12;20.50;53.90
26035;DHT22;13809;48.632;11.576;2022-08-19T22:29:16;20.50;53.90
26035;DHT22;13809;48.632;11.576;2022-08-19T22:34:26;20.60;54.70
26035;DHT22;13809;48.632;11.576;2022-08-19T22:39:30;20.60;54.10
26035;DHT22;13809;48.632;11.576;2022-08-19T22:44:35;20.70;54.10
26035;DHT22;13809;48.632;11.576;2022-08-19T22:49:38;20.70;54.60
26035;DHT22;13809;48.632;11.576;2022-08-19T22:54:43;20.80;54.10
26035;DHT22;13809;48.632;11.576;2022-08-19T22:59:49;20.80;54.20
26035;DHT22;13809;48.632;11.576;2022-08-19T23:04:53;20.90;54.50
26035;DHT22;13809;48.632;11.576;2022-08-19T23:09:57;21.00;53.90
26035;DHT22;13809;48.632;11.576;2022-08-19T23:15:05;21.00;53.60
26035;DHT22;13809;48.632;11.576;2022-08-19T23:20:10;21.00;53.90
26035;DHT22;13809;48.632;11.576;2022-08-19T23:25:17;21.10;53.60
26035;DHT22;13809;48.632;11.576;2022-08-19T23:30:23;21.10;53.50
26035;DHT22;13809;48.632;11.576;2022-08-19T23:35:31;21.10;53.40
26035;DHT22;13809;48.632;11.576;2022-08-19T23:40:36;21.10;53.50
26035;DHT22;13809;48.632;11.576;2022-08-19T23:45:41;21.10;53.30
26035;DHT22;13809;48.632;11.576;2022-08-19T23:50:52;21.10;53.20
26035;DHT22;13809;48.632;11.576;2022-08-19T23:55:58;21.20;53.10
